Time;durP1;ratioP1;P1;durP2;ratioP2;P2;SDS_P1;SDS_P2;PMS_P1;PMS_P2;Temp;Humidity;BMP_temperature;BMP_pressure;BME280_temperature;BME280_humidity;BME280_pressure;Samples;Min_cycle;Max_cycle;Signal;HPM_P1;HPM_P2
2023/03/30 00:00:14;;;;;;;0.10;0.10;;;;;;;;;;5010684;28;20052;-76
2023/03/30 00:02:42;;;;;;;0.10;0.10;;;;;;;;;;5008055;28;20084;-76
2023/03/30 00:05:09;;;;;;;0.20;0.20;;;;;;;;;;4992940;28;20053;-76
2023/03/30 00:07:37;;;;;;;0.10;0.10;;;;;;;;;;4994110;28;20085;-76
2023/03/30 00:10:03;;;;;;;0.20;0.20;;;;;;;;;;5012502;28;20059;-76
2023/03/30 00:12:29;;;;;;;0.10;0.10;;;;;;;;;;5022044;28;20457;-75
2023/03/30 00:14:55;;;;;;;0.10;0.10;;;;;;;;;;4992029;28;20129;-76
2023/03/30 00:17:23;;;;;;;0.10;0.10;;;;;;;;;;5016633;28;20049;-76
2023/03/30 00:19:49;;;;;;;0.10;0.10;;;;;;;;;;5008253;28;20125;-76
2023/03/30 00:22:15;;;;;;;0.10;0.10;;;;;;;;;;5005056;28;20046;-76
2023/03/30 00:24:46;;;;;;;0.10;0.10;;;;;;;;;;4996075;28;20457;-77
2023/03/30 00:27:12;;;;;;;0.20;0.20;;;;;;;;;;4991713;28;20045;-77
2023/03/30 00:29:41;;;;;;;0.20;0.20;;;;;;;;;;5008540;28;20099;-76
2023/03/30 00:32:07;;;;;;;0.10;0.10;;;;;;;;;;5012877;28;20049;-77
2023/03/30 00:34:33;;;;;;;0.10;0.10;;;;;;;;;;4991834;28;20057;-76
2023/03/30 00:36:59;;;;;;;0.10;0.10;;;;;;;;;;5009468;28;20046;-76
2023/03/30 00:39:25;;;;;;;0.10;0.10;;;;;;;;;;4996254;28;20128;-77
2023/03/30 00:41:51;;;;;;;0.10;0.10;;;;;;;;;;4989245;28;20533;-76
2023/03/30 00:44:36;;;;;;;0.10;0.10;;;;;;;;;;5010236;28;20498;-76
2023/03/30 00:47:02;;;;;;;0.10;0.10;;;;;;;;;;5009656;28;20298;-77
2023/03/30 00:49:30;;;;;;;0.10;0.10;;;;;;;;;;4994777;28;20050;-76
2023/03/30 00:51:57;;;;;;;0.10;0.10;;;;;;;;;;4992711;28;20041;-77
2023/03/30 00:54:23;;;;;;;0.13;0.13;;;;;;;;;;5000879;28;20068;-76
2023/03/30 00:56:49;;;;;;;0.10;0.10;;;;;;;;;;4990509;28;20161;-76
2023/03/30 00:59:15;;;;;;;0.15;0.15;;;;;;;;;;5012595;28;20096;-76
2023/03/30 01:01:49;;;;;;;0.10;0.10;;;;;;;;;;5028421;28;20034;-77
2023/03/30 01:04:19;;;;;;;0.20;0.20;;;;;;;;;;4992667;28;20050;-76
2023/03/30 01:06:46;;;;;;;0.10;0.10;;;;;;;;;;4992670;28;20050;-76
2023/03/30 01:09:14;;;;;;;0.10;0.10;;;;;;;;;;4991001;28;20046;-76
2023/03/30 01:11:40;;;;;;;0.17;0.17;;;;;;;;;;4989839;28;20472;-76
2023/03/30 01:14:08;;;;;;;0.20;0.20;;;;;;;;;;4991284;28;20136;-76
2023/03/30 01:16:49;;;;;;;0.10;0.10;;;;;;;;;;4993061;28;20042;-76
2023/03/30 01:19:34;;;;;;;0.20;0.20;;;;;;;;;;4995850;28;20046;-77
2023/03/30 01:22:19;;;;;;;0.13;0.13;;;;;;;;;;5009680;28;20038;-77
2023/03/30 01:24:52;;;;;;;0.20;0.20;;;;;;;;;;4990892;28;20414;-76
2023/03/30 01:27:18;;;;;;;0.10;0.10;;;;;;;;;;5008818;28;20045;-77
2023/03/30 01:29:47;;;;;;;0.17;0.17;;;;;;;;;;4995338;28;20113;-76
2023/03/30 01:32:25;;;;;;;0.10;0.10;;;;;;;;;;5010459;28;20068;-76
2023/03/30 01:35:01;;;;;;;0.10;0.10;;;;;;;;;;5003212;28;20049;-77
2023/03/30 01:37:33;;;;;;;0.10;0.10;;;;;;;;;;4992230;28;20037;-77
2023/03/30 01:40:18;;;;;;;0.10;0.10;;;;;;;;;;5009840;28;20085;-76
2023/03/30 01:42:44;;;;;;;0.10;0.10;;;;;;;;;;5009326;28;20080;-76
2023/03/30 01:45:42;;;;;;;0.20;0.20;;;;;;;;;;5010099;28;20041;-77
2023/03/30 01:48:17;;;;;;;0.20;0.20;;;;;;;;;;4965115;28;20516;-76
2023/03/30 01:50:48;;;;;;;0.10;0.10;;;;;;;;;;4995441;28;20103;-76
2023/03/30 01:53:16;;;;;;;0.17;0.17;;;;;;;;;;4988859;28;20124;-77
2023/03/30 01:55:55;;;;;;;0.10;0.10;;;;;;;;;;4990781;28;20141;-76
2023/03/30 01:58:37;;;;;;;0.10;0.10;;;;;;;;;;4992269;28;20525;-77
2023/03/30 02:01:05;;;;;;;0.13;0.13;;;;;;;;;;5007220;28;20057;-77
2023/03/30 02:03:33;;;;;;;0.10;0.10;;;;;;;;;;4993596;28;20038;-76
2023/03/30 02:06:04;;;;;;;0.10;0.10;;;;;;;;;;4996099;28;20503;-76
2023/03/30 02:08:32;;;;;;;0.20;0.20;;;;;;;;;;4995230;28;20048;-77
2023/03/30 02:10:59;;;;;;;0.10;0.10;;;;;;;;;;5010324;28;20136;-76
2023/03/30 02:13:29;;;;;;;0.10;0.10;;;;;;;;;;4998643;28;20141;-76
2023/03/30 02:16:18;;;;;;;0.20;0.20;;;;;;;;;;5003783;28;20424;-76
2023/03/30 02:18:45;;;;;;;0.10;0.10;;;;;;;;;;4993523;28;20192;-77
2023/03/30 02:21:11;;;;;;;0.10;0.10;;;;;;;;;;5011755;28;20063;-76
2023/03/30 02:23:39;;;;;;;0.17;0.17;;;;;;;;;;5010643;28;20045;-76
2023/03/30 02:26:07;;;;;;;0.10;0.10;;;;;;;;;;4996664;28;20493;-76
2023/03/30 02:28:36;;;;;;;0.10;0.10;;;;;;;;;;5012517;28;20678;-76
2023/03/30 02:31:03;;;;;;;0.10;0.10;;;;;;;;;;4986610;28;20050;-76
2023/03/30 02:33:41;;;;;;;0.10;0.10;;;;;;;;;;5015085;28;20169;-76
2023/03/30 02:36:08;;;;;;;0.10;0.10;;;;;;;;;;5012499;28;20050;-76
2023/03/30 02:39:07;;;;;;;0.10;0.10;;;;;;;;;;5012338;28;20046;-77
2023/03/30 02:41:59;;;;;;;0.10;0.10;;;;;;;;;;4969906;28;20136;-76
2023/03/30 02:44:55;;;;;;;0.20;0.20;;;;;;;;;;5028614;28;20041;-76
2023/03/30 02:47:30;;;;;;;0.10;0.10;;;;;;;;;;4946421;28;20183;-76
2023/03/30 02:50:02;;;;;;;0.20;0.20;;;;;;;;;;5011207;28;20600;-75
2023/03/30 02:52:35;;;;;;;0.20;0.20;;;;;;;;;;5009704;28;20045;-77
2023/03/30 02:55:10;;;;;;;0.10;0.10;;;;;;;;;;5019110;28;20061;-76
2023/03/30 02:57:55;;;;;;;0.20;0.20;;;;;;;;;;4993780;28;20558;-75
2023/03/30 03:00:50;;;;;;;0.10;0.10;;;;;;;;;;5001490;28;20041;-75
2023/03/30 03:03:37;;;;;;;0.10;0.10;;;;;;;;;;4991580;28;20065;-76
2023/03/30 03:06:08;;;;;;;0.10;0.10;;;;;;;;;;4999347;28;20060;-75
2023/03/30 03:08:39;;;;;;;0.10;0.10;;;;;;;;;;4994833;28;20052;-77
2023/03/30 03:11:08;;;;;;;0.20;0.20;;;;;;;;;;5014009;28;20521;-76
2023/03/30 03:13:38;;;;;;;0.10;0.10;;;;;;;;;;5013371;28;20128;-76
2023/03/30 03:16:11;;;;;;;0.10;0.10;;;;;;;;;;4997236;28;20052;-76
2023/03/30 03:18:41;;;;;;;0.20;0.20;;;;;;;;;;5010556;28;20042;-75
2023/03/30 03:21:08;;;;;;;0.13;0.13;;;;;;;;;;5017344;28;20752;-75
2023/03/30 03:23:35;;;;;;;0.15;0.15;;;;;;;;;;5009503;28;20046;-75
2023/03/30 03:26:01;;;;;;;0.20;0.20;;;;;;;;;;5007691;28;20038;-76
2023/03/30 03:28:30;;;;;;;0.10;0.10;;;;;;;;;;4991083;28;20046;-75
2023/03/30 03:30:58;;;;;;;0.20;0.20;;;;;;;;;;4992613;28;20124;-75
2023/03/30 03:33:25;;;;;;;0.10;0.10;;;;;;;;;;4992496;28;20065;-76
2023/03/30 03:35:53;;;;;;;0.10;0.10;;;;;;;;;;5003210;28;20167;-76
2023/03/30 03:38:23;;;;;;;0.10;0.10;;;;;;;;;;5011864;28;20042;-76
2023/03/30 03:40:50;;;;;;;0.10;0.10;;;;;;;;;;4995487;28;20619;-75
2023/03/30 03:43:16;;;;;;;0.10;0.10;;;;;;;;;;4991660;28;20045;-75
2023/03/30 03:45:44;;;;;;;0.20;0.20;;;;;;;;;;5009656;28;20666;-75
2023/03/30 03:48:10;;;;;;;0.10;0.10;;;;;;;;;;4992517;28;20505;-75
2023/03/30 03:50:37;;;;;;;0.20;0.20;;;;;;;;;;5011768;28;20042;-75
2023/03/30 03:53:03;;;;;;;0.10;0.10;;;;;;;;;;4991675;28;20112;-75
2023/03/30 03:55:29;;;;;;;0.10;0.10;;;;;;;;;;5009505;28;20489;-75
2023/03/30 03:57:55;;;;;;;0.10;0.10;;;;;;;;;;5003482;28;20610;-77
2023/03/30 04:00:22;;;;;;;0.17;0.17;;;;;;;;;;5011369;28;20402;-76
2023/03/30 04:02:48;;;;;;;0.20;0.20;;;;;;;;;;5012480;28;20046;-75
2023/03/30 04:05:14;;;;;;;0.20;0.20;;;;;;;;;;5011307;28;20504;-76
2023/03/30 04:07:40;;;;;;;0.20;0.20;;;;;;;;;;4994255;28;20054;-75
2023/03/30 04:10:06;;;;;;;0.15;0.15;;;;;;;;;;5014042;28;20048;-75
2023/03/30 04:12:33;;;;;;;0.20;0.20;;;;;;;;;;4993908;28;20566;-76
2023/03/30 04:14:59;;;;;;;0.20;0.20;;;;;;;;;;4998674;28;20022;-77
2023/03/30 04:17:25;;;;;;;0.10;0.10;;;;;;;;;;4987952;28;20393;-77
2023/03/30 04:19:52;;;;;;;0.10;0.10;;;;;;;;;;4992445;28;20049;-76
2023/03/30 04:22:19;;;;;;;0.10;0.10;;;;;;;;;;4990756;28;20088;-76
2023/03/30 04:24:45;;;;;;;0.20;0.20;;;;;;;;;;4992553;28;20049;-76
2023/03/30 04:27:15;;;;;;;0.10;0.10;;;;;;;;;;4992356;28;20517;-76
2023/03/30 04:29:43;;;;;;;0.20;0.20;;;;;;;;;;4998253;28;20053;-76
2023/03/30 04:32:13;;;;;;;0.10;0.10;;;;;;;;;;5016190;28;20501;-76
2023/03/30 04:34:42;;;;;;;0.20;0.20;;;;;;;;;;5009504;28;20088;-77
2023/03/30 04:37:08;;;;;;;0.10;0.10;;;;;;;;;;4995054;28;20049;-77
2023/03/30 04:39:35;;;;;;;0.10;0.10;;;;;;;;;;5012217;28;20049;-77
2023/03/30 04:42:05;;;;;;;0.20;0.20;;;;;;;;;;5005984;28;20044;-76
2023/03/30 04:44:31;;;;;;;0.10;0.10;;;;;;;;;;4998327;28;20072;-75
2023/03/30 04:46:57;;;;;;;0.10;0.10;;;;;;;;;;5010952;28;20045;-74
2023/03/30 04:49:23;;;;;;;0.15;0.15;;;;;;;;;;5008701;28;20061;-75
2023/03/30 04:51:58;;;;;;;0.10;0.10;;;;;;;;;;4984714;28;20040;-75
2023/03/30 04:54:24;;;;;;;0.10;0.10;;;;;;;;;;5013496;28;20581;-76
2023/03/30 04:56:57;;;;;;;0.10;0.10;;;;;;;;;;5000917;28;20046;-75
2023/03/30 04:59:24;;;;;;;0.13;0.13;;;;;;;;;;4996721;28;20132;-75
2023/03/30 05:01:50;;;;;;;0.20;0.20;;;;;;;;;;4989805;28;20050;-75
2023/03/30 05:04:16;;;;;;;0.15;0.15;;;;;;;;;;4990914;28;20050;-76
2023/03/30 05:06:43;;;;;;;0.10;0.10;;;;;;;;;;4992283;28;20042;-75
2023/03/30 05:09:09;;;;;;;0.20;0.20;;;;;;;;;;4991531;28;20073;-76
2023/03/30 05:11:35;;;;;;;0.10;0.10;;;;;;;;;;4990415;28;20104;-76
2023/03/30 05:14:01;;;;;;;0.10;0.10;;;;;;;;;;4993679;28;20050;-76
2023/03/30 05:16:27;;;;;;;0.15;0.15;;;;;;;;;;5015349;28;20045;-75
2023/03/30 05:18:53;;;;;;;0.13;0.13;;;;;;;;;;4990642;28;20061;-76
2023/03/30 05:21:20;;;;;;;0.10;0.10;;;;;;;;;;5020341;28;20052;-75
2023/03/30 05:23:46;;;;;;;0.10;0.10;;;;;;;;;;5009446;28;20136;-76
2023/03/30 05:26:12;;;;;;;0.10;0.10;;;;;;;;;;4993651;28;20057;-76
2023/03/30 05:28:41;;;;;;;0.10;0.10;;;;;;;;;;5008311;28;20057;-76
2023/03/30 05:31:08;;;;;;;0.10;0.10;;;;;;;;;;4979396;28;20041;-77
2023/03/30 05:33:34;;;;;;;0.15;0.15;;;;;;;;;;4993382;28;20061;-74
2023/03/30 05:36:00;;;;;;;0.20;0.20;;;;;;;;;;5002553;28;20058;-75
2023/03/30 05:38:26;;;;;;;0.10;0.10;;;;;;;;;;5009060;28;20132;-74
2023/03/30 05:40:53;;;;;;;0.15;0.15;;;;;;;;;;5009379;28;20085;-74
2023/03/30 05:43:22;;;;;;;0.10;0.10;;;;;;;;;;5007549;28;20050;-79
2023/03/30 05:45:48;;;;;;;0.10;0.10;;;;;;;;;;4989322;28;20053;-78
2023/03/30 05:48:14;;;;;;;0.20;0.20;;;;;;;;;;4993640;28;20122;-78
2023/03/30 05:50:41;;;;;;;0.10;0.10;;;;;;;;;;5012136;28;20546;-78
2023/03/30 05:53:07;;;;;;;0.20;0.20;;;;;;;;;;4992489;28;20061;-80
2023/03/30 05:55:33;;;;;;;0.10;0.10;;;;;;;;;;4996200;28;20119;-79
2023/03/30 05:58:00;;;;;;;0.10;0.10;;;;;;;;;;4997014;28;20045;-78
2023/03/30 06:00:32;;;;;;;0.10;0.10;;;;;;;;;;4991523;28;20058;-79
2023/03/30 06:02:58;;;;;;;0.20;0.20;;;;;;;;;;4996105;28;20054;-79
2023/03/30 06:05:24;;;;;;;0.20;0.20;;;;;;;;;;5012139;28;20063;-79
2023/03/30 06:07:50;;;;;;;0.20;0.20;;;;;;;;;;4990451;28;20042;-78
2023/03/30 06:10:16;;;;;;;0.10;0.10;;;;;;;;;;4995317;28;20042;-78
2023/03/30 06:12:42;;;;;;;0.20;0.20;;;;;;;;;;4995931;28;20077;-78
2023/03/30 06:15:10;;;;;;;0.10;0.10;;;;;;;;;;5018002;28;20042;-77
2023/03/30 06:17:36;;;;;;;0.15;0.15;;;;;;;;;;5025160;28;20398;-79
2023/03/30 06:20:07;;;;;;;0.13;0.13;;;;;;;;;;5014267;28;20509;-78
2023/03/30 06:22:34;;;;;;;0.10;0.10;;;;;;;;;;4999337;28;20072;-78
2023/03/30 06:25:00;;;;;;;0.10;0.10;;;;;;;;;;4989261;28;20133;-78
2023/03/30 06:27:26;;;;;;;0.10;0.10;;;;;;;;;;4993102;28;20050;-79
2023/03/30 06:29:52;;;;;;;0.15;0.15;;;;;;;;;;5011781;28;20409;-79
2023/03/30 06:32:18;;;;;;;0.10;0.10;;;;;;;;;;4996042;28;20061;-77
2023/03/30 06:34:44;;;;;;;0.10;0.10;;;;;;;;;;5001702;23;20060;-78
2023/03/30 06:37:10;;;;;;;0.10;0.10;;;;;;;;;;4992564;28;20089;-79
2023/03/30 06:39:37;;;;;;;0.10;0.10;;;;;;;;;;4984449;28;20057;-79
2023/03/30 06:42:04;;;;;;;0.10;0.10;;;;;;;;;;4989460;28;20571;-78
2023/03/30 06:44:31;;;;;;;0.10;0.10;;;;;;;;;;4994786;28;20410;-78
2023/03/30 06:46:57;;;;;;;0.10;0.10;;;;;;;;;;4993334;28;20061;-78
2023/03/30 06:49:23;;;;;;;0.10;0.10;;;;;;;;;;5008178;28;20192;-78
2023/03/30 06:51:49;;;;;;;0.10;0.10;;;;;;;;;;4995342;28;20054;-78
2023/03/30 06:54:22;;;;;;;0.10;0.10;;;;;;;;;;4986370;28;20048;-78
2023/03/30 06:56:48;;;;;;;0.10;0.10;;;;;;;;;;5021502;28;20045;-79
2023/03/30 06:59:14;;;;;;;0.10;0.10;;;;;;;;;;4987665;28;20410;-79
2023/03/30 07:01:41;;;;;;;0.13;0.13;;;;;;;;;;5007138;28;20097;-78
2023/03/30 07:04:09;;;;;;;0.20;0.20;;;;;;;;;;4993161;28;20054;-78
2023/03/30 07:06:38;;;;;;;0.10;0.10;;;;;;;;;;5011413;28;20053;-79
2023/03/30 07:09:07;;;;;;;0.10;0.10;;;;;;;;;;5012357;28;20422;-79
2023/03/30 07:11:36;;;;;;;0.10;0.10;;;;;;;;;;5005591;28;20494;-78
2023/03/30 07:14:04;;;;;;;0.20;0.20;;;;;;;;;;5007238;28;20073;-78
2023/03/30 07:16:33;;;;;;;0.10;0.10;;;;;;;;;;4990437;28;20064;-79
2023/03/30 07:18:59;;;;;;;0.10;0.10;;;;;;;;;;4986822;28;20137;-78
2023/03/30 07:21:25;;;;;;;0.10;0.10;;;;;;;;;;5008837;28;20401;-79
2023/03/30 07:23:51;;;;;;;0.20;0.20;;;;;;;;;;5011959;28;20038;-80
2023/03/30 07:26:17;;;;;;;0.10;0.10;;;;;;;;;;5011847;28;20548;-79
2023/03/30 07:28:44;;;;;;;0.10;0.10;;;;;;;;;;5009360;28;20471;-78
2023/03/30 07:31:13;;;;;;;0.10;0.10;;;;;;;;;;5011951;28;20058;-79
2023/03/30 07:33:39;;;;;;;0.13;0.13;;;;;;;;;;4994227;28;20042;-79
2023/03/30 07:36:07;;;;;;;0.15;0.15;;;;;;;;;;4979406;28;20054;-78
2023/03/30 07:38:33;;;;;;;0.10;0.10;;;;;;;;;;5022164;28;20054;-79
2023/03/30 07:40:59;;;;;;;0.20;0.20;;;;;;;;;;4996200;28;20042;-79
2023/03/30 07:43:26;;;;;;;0.10;0.10;;;;;;;;;;4995015;28;20073;-79
2023/03/30 07:45:52;;;;;;;0.10;0.10;;;;;;;;;;4995052;28;20046;-79
2023/03/30 07:48:21;;;;;;;0.20;0.20;;;;;;;;;;5008046;28;20117;-78
2023/03/30 07:50:47;;;;;;;0.20;0.20;;;;;;;;;;5000276;28;20116;-79
2023/03/30 07:53:13;;;;;;;0.10;0.10;;;;;;;;;;4994335;28;20322;-77
2023/03/30 07:55:39;;;;;;;0.10;0.10;;;;;;;;;;4995209;28;20449;-78
2023/03/30 07:58:06;;;;;;;0.10;0.10;;;;;;;;;;4996397;28;20052;-77
2023/03/30 08:00:32;;;;;;;0.10;0.10;;;;;;;;;;5016820;28;20053;-78
2023/03/30 08:02:58;;;;;;;0.10;0.10;;;;;;;;;;5000959;28;20709;-78
2023/03/30 08:05:24;;;;;;;0.20;0.20;;;;;;;;;;5003064;28;20525;-78
2023/03/30 08:07:50;;;;;;;0.10;0.10;;;;;;;;;;4987270;28;20042;-78
2023/03/30 08:10:17;;;;;;;0.10;0.10;;;;;;;;;;4990952;28;20057;-78
2023/03/30 08:12:43;;;;;;;0.10;0.10;;;;;;;;;;5013115;28;20038;-78
2023/03/30 08:15:09;;;;;;;0.10;0.10;;;;;;;;;;5008168;28;20073;-79
2023/03/30 08:17:36;;;;;;;0.13;0.13;;;;;;;;;;5025892;28;20048;-79
2023/03/30 08:20:02;;;;;;;0.13;0.13;;;;;;;;;;4981400;28;20049;-79
2023/03/30 08:22:30;;;;;;;0.10;0.10;;;;;;;;;;4997483;28;20061;-79
2023/03/30 08:24:56;;;;;;;0.17;0.17;;;;;;;;;;4980049;28;20603;-79
2023/03/30 08:27:22;;;;;;;0.10;0.10;;;;;;;;;;4995854;28;20127;-79
2023/03/30 08:29:49;;;;;;;0.10;0.10;;;;;;;;;;4985802;28;20417;-80
2023/03/30 08:32:15;;;;;;;0.10;0.10;;;;;;;;;;4981027;28;20490;-79
2023/03/30 08:34:41;;;;;;;0.10;0.10;;;;;;;;;;5000448;28;20133;-80
2023/03/30 08:37:07;;;;;;;0.20;0.20;;;;;;;;;;5005492;28;20100;-80
2023/03/30 08:39:33;;;;;;;0.17;0.17;;;;;;;;;;4990907;28;20053;-80
2023/03/30 08:42:05;;;;;;;0.20;0.20;;;;;;;;;;5080050;23;20521;-80
2023/03/30 08:44:37;;;;;;;0.13;0.13;;;;;;;;;;4964301;28;20042;-80
2023/03/30 08:47:05;;;;;;;0.20;0.20;;;;;;;;;;4998040;28;20407;-80
2023/03/30 08:49:37;;;;;;;0.10;0.10;;;;;;;;;;4989782;28;20070;-80
2023/03/30 08:52:04;;;;;;;0.13;0.13;;;;;;;;;;4985788;28;20042;-81
2023/03/30 08:54:31;;;;;;;0.10;0.10;;;;;;;;;;4970270;28;20042;-79
2023/03/30 08:57:21;;;;;;;0.10;0.10;;;;;;;;;;4974186;28;20070;-80
2023/03/30 09:00:05;;;;;;;0.10;0.10;;;;;;;;;;4956892;28;20054;-78
2023/03/30 09:02:36;;;;;;;0.10;0.10;;;;;;;;;;4972762;28;20162;-81
2023/03/30 09:05:03;;;;;;;0.10;0.10;;;;;;;;;;5004824;23;20058;-80
2023/03/30 09:07:37;;;;;;;0.10;0.10;;;;;;;;;;4971951;28;20450;-80
2023/03/30 09:10:14;;;;;;;0.10;0.10;;;;;;;;;;4959438;28;20578;-81
2023/03/30 09:12:58;;;;;;;0.10;0.10;;;;;;;;;;4971489;28;20125;-80
2023/03/30 09:15:29;;;;;;;0.20;0.20;;;;;;;;;;4976757;23;20042;-80
2023/03/30 09:17:55;;;;;;;0.20;0.20;;;;;;;;;;4981187;28;20058;-80
2023/03/30 09:20:21;;;;;;;0.20;0.20;;;;;;;;;;4990819;28;20050;-85
2023/03/30 09:22:48;;;;;;;0.10;0.10;;;;;;;;;;4971444;28;20418;-81
2023/03/30 09:25:18;;;;;;;0.10;0.10;;;;;;;;;;4988415;28;20108;-80
2023/03/30 09:27:54;;;;;;;0.10;0.10;;;;;;;;;;5011829;28;20038;-80
2023/03/30 09:30:22;;;;;;;0.10;0.10;;;;;;;;;;4973501;28;20559;-79
2023/03/30 09:32:59;;;;;;;0.10;0.10;;;;;;;;;;4974893;28;20053;-81
2023/03/30 09:35:28;;;;;;;0.10;0.10;;;;;;;;;;4971480;28;20441;-80
2023/03/30 09:37:55;;;;;;;0.17;0.17;;;;;;;;;;4988088;28;20085;-80
2023/03/30 09:40:26;;;;;;;0.10;0.10;;;;;;;;;;4981376;28;20054;-80
2023/03/30 09:43:04;;;;;;;0.10;0.10;;;;;;;;;;4987462;28;20118;-80
2023/03/30 09:45:31;;;;;;;0.20;0.20;;;;;;;;;;4982381;28;20078;-80
2023/03/30 09:48:03;;;;;;;0.10;0.10;;;;;;;;;;4969587;28;20045;-79
2023/03/30 09:50:36;;;;;;;0.10;0.10;;;;;;;;;;4988883;28;20035;-79
2023/03/30 09:53:03;;;;;;;0.20;0.20;;;;;;;;;;4981966;28;20043;-80
2023/03/30 09:55:36;;;;;;;0.20;0.20;;;;;;;;;;4971554;28;20124;-80
2023/03/30 09:58:25;;;;;;;0.20;0.20;;;;;;;;;;4964838;28;20050;-80
2023/03/30 10:01:03;;;;;;;0.32;0.20;;;;;;;;;;4980644;28;20047;-80
2023/03/30 10:03:29;;;;;;;0.10;0.10;;;;;;;;;;4970051;28;20046;-80
2023/03/30 10:06:03;;;;;;;0.10;0.10;;;;;;;;;;4966776;28;20081;-79
2023/03/30 10:08:33;;;;;;;0.10;0.10;;;;;;;;;;4964961;28;20413;-80
2023/03/30 10:11:01;;;;;;;0.10;0.10;;;;;;;;;;4961038;28;20038;-80
2023/03/30 10:13:40;;;;;;;0.10;0.10;;;;;;;;;;4957815;28;20518;-80
2023/03/30 10:16:07;;;;;;;0.10;0.10;;;;;;;;;;4963632;28;20442;-79
2023/03/30 10:18:41;;;;;;;0.20;0.20;;;;;;;;;;4978458;28;20411;-79
2023/03/30 10:21:13;;;;;;;0.10;0.10;;;;;;;;;;4989506;28;20339;-79
2023/03/30 10:23:41;;;;;;;0.10;0.10;;;;;;;;;;4988284;28;20054;-82
2023/03/30 10:26:17;;;;;;;0.20;0.20;;;;;;;;;;4983337;28;20097;-81
2023/03/30 10:28:52;;;;;;;0.10;0.10;;;;;;;;;;4965723;28;20342;-80
2023/03/30 10:31:19;;;;;;;0.10;0.10;;;;;;;;;;4988477;28;20069;-81
2023/03/30 10:33:45;;;;;;;0.10;0.10;;;;;;;;;;4979954;28;20490;-82
2023/03/30 10:36:13;;;;;;;0.20;0.20;;;;;;;;;;4962819;28;20042;-80
2023/03/30 10:38:43;;;;;;;0.20;0.20;;;;;;;;;;4965681;28;20085;-80
2023/03/30 10:41:29;;;;;;;0.10;0.10;;;;;;;;;;4971698;28;20509;-81
2023/03/30 10:43:55;;;;;;;0.17;0.17;;;;;;;;;;4963730;28;20051;-80
2023/03/30 10:46:24;;;;;;;0.20;0.20;;;;;;;;;;4967636;28;20038;-80
2023/03/30 10:48:50;;;;;;;0.10;0.10;;;;;;;;;;4971405;28;20057;-80
2023/03/30 10:51:25;;;;;;;0.20;0.20;;;;;;;;;;4974364;28;20097;-80
2023/03/30 10:54:10;;;;;;;0.10;0.10;;;;;;;;;;4969455;28;20419;-82
2023/03/30 10:56:36;;;;;;;0.10;0.10;;;;;;;;;;4968276;28;20046;-80
2023/03/30 10:59:08;;;;;;;0.20;0.20;;;;;;;;;;4988854;28;20131;-80
2023/03/30 11:01:55;;;;;;;0.10;0.10;;;;;;;;;;4974979;28;20082;-81
2023/03/30 11:04:40;;;;;;;0.10;0.10;;;;;;;;;;4986320;28;20124;-82
2023/03/30 11:07:12;;;;;;;0.10;0.10;;;;;;;;;;4985315;28;20100;-82
2023/03/30 11:09:46;;;;;;;0.20;0.20;;;;;;;;;;4970977;28;20139;-81
2023/03/30 11:12:15;;;;;;;0.10;0.10;;;;;;;;;;4984887;28;21055;-82
2023/03/30 11:15:02;;;;;;;0.10;0.10;;;;;;;;;;4970916;28;20062;-80
2023/03/30 11:17:34;;;;;;;0.17;0.17;;;;;;;;;;4969583;28;20046;-82
2023/03/30 11:20:06;;;;;;;0.10;0.10;;;;;;;;;;4994273;28;20050;-81
2023/03/30 11:22:45;;;;;;;0.20;0.20;;;;;;;;;;4999460;23;20053;-80
2023/03/30 11:25:23;;;;;;;0.20;0.20;;;;;;;;;;5003702;28;20069;-80
2023/03/30 11:28:05;;;;;;;0.17;0.17;;;;;;;;;;5019199;28;20041;-79
2023/03/30 11:30:43;;;;;;;0.10;0.10;;;;;;;;;;4995262;28;20053;-80
2023/03/30 11:33:31;;;;;;;0.20;0.20;;;;;;;;;;5011976;28;20520;-81
2023/03/30 11:36:02;;;;;;;0.10;0.10;;;;;;;;;;5001659;23;20065;-79
2023/03/30 11:42:17;;;;;;;0.10;0.10;;;;;;;;;;4974731;28;20503;-81
2023/03/30 11:45:00;;;;;;;0.10;0.10;;;;;;;;;;4966248;28;20089;-81
2023/03/30 11:47:55;;;;;;;0.20;0.20;;;;;;;;;;4957794;28;20047;-81
2023/03/30 11:50:30;;;;;;;0.10;0.10;;;;;;;;;;4972748;28;20093;-81
2023/03/30 11:52:56;;;;;;;0.20;0.20;;;;;;;;;;4954199;28;20057;-81
2023/03/30 11:59:08;;;;;;;0.10;0.10;;;;;;;;;;5008616;23;20085;-79
2023/03/30 12:04:36;;;;;;;0.10;0.10;;;;;;;;;;4998599;23;20086;-80
2023/03/30 12:07:04;;;;;;;0.10;0.10;;;;;;;;;;4972685;28;20047;-79
2023/03/30 12:09:52;;;;;;;0.10;0.10;;;;;;;;;;4975041;28;20046;-79
2023/03/30 12:12:23;;;;;;;0.20;0.20;;;;;;;;;;4972137;28;20046;-74
2023/03/30 12:15:02;;;;;;;0.10;0.10;;;;;;;;;;4975471;28;20089;-79
2023/03/30 12:17:43;;;;;;;0.20;0.20;;;;;;;;;;4973248;28;20047;-79
2023/03/30 12:20:41;;;;;;;0.20;0.20;;;;;;;;;;4976131;28;20042;-79
2023/03/30 12:23:08;;;;;;;0.10;0.10;;;;;;;;;;4987725;28;20281;-80
2023/03/30 12:26:10;;;;;;;0.20;0.20;;;;;;;;;;4974173;28;20133;-80
2023/03/30 12:29:08;;;;;;;0.10;0.10;;;;;;;;;;4991089;28;20054;-79
2023/03/30 12:32:14;;;;;;;0.10;0.10;;;;;;;;;;4895829;29;20094;-80
2023/03/30 12:34:52;;;;;;;0.13;0.13;;;;;;;;;;4856927;29;20394;-80
2023/03/30 12:37:34;;;;;;;0.10;0.10;;;;;;;;;;4928031;29;20146;-81
2023/03/30 12:43:14;;;;;;;0.10;0.10;;;;;;;;;;4929048;29;20051;-80
2023/03/30 12:46:07;;;;;;;0.17;0.17;;;;;;;;;;4931678;29;20069;-80
2023/03/30 12:49:01;;;;;;;0.13;0.13;;;;;;;;;;4912707;29;20542;-79
2023/03/30 12:51:46;;;;;;;0.10;0.10;;;;;;;;;;4912166;29;20349;-81
2023/03/30 12:54:30;;;;;;;0.30;0.30;;;;;;;;;;4921288;28;20044;-79
2023/03/30 12:57:16;;;;;;;0.10;0.10;;;;;;;;;;4990684;28;20399;-79
2023/03/30 12:59:51;;;;;;;0.10;0.10;;;;;;;;;;4985110;28;20106;-81
2023/03/30 13:02:24;;;;;;;0.10;0.10;;;;;;;;;;4978672;28;20074;-79
2023/03/30 13:04:51;;;;;;;0.20;0.20;;;;;;;;;;4988575;28;20065;-79
2023/03/30 13:07:22;;;;;;;0.10;0.10;;;;;;;;;;4979164;28;20172;-78
2023/03/30 13:10:01;;;;;;;0.10;0.10;;;;;;;;;;4986639;23;20132;-80
2023/03/30 13:12:27;;;;;;;0.20;0.20;;;;;;;;;;4985518;28;20042;-79
2023/03/30 13:14:58;;;;;;;0.70;0.50;;;;;;;;;;4969813;28;20034;-80
2023/03/30 13:17:27;;;;;;;0.10;0.10;;;;;;;;;;4981735;28;20042;-80
2023/03/30 13:20:12;;;;;;;0.13;0.13;;;;;;;;;;4973330;28;20038;-78
2023/03/30 13:25:40;;;;;;;0.10;0.10;;;;;;;;;;5010658;23;20053;-81
2023/03/30 13:28:28;;;;;;;0.20;0.20;;;;;;;;;;5004285;28;20054;-80
2023/03/30 13:34:37;;;;;;;0.10;0.10;;;;;;;;;;4997471;28;20045;-80
2023/03/30 13:37:22;;;;;;;0.10;0.10;;;;;;;;;;4981451;28;20045;-78
2023/03/30 13:40:29;;;;;;;0.10;0.10;;;;;;;;;;5009524;23;20406;-82
2023/03/30 13:43:39;;;;;;;0.10;0.10;;;;;;;;;;4994466;28;20049;-81
2023/03/30 13:46:31;;;;;;;0.10;0.10;;;;;;;;;;5010279;28;20046;-80
2023/03/30 13:49:22;;;;;;;0.20;0.20;;;;;;;;;;5010244;28;20046;-79
2023/03/30 13:52:07;;;;;;;0.10;0.10;;;;;;;;;;4991903;28;20056;-80
2023/03/30 13:54:40;;;;;;;0.20;0.20;;;;;;;;;;5010488;28;20037;-80
2023/03/30 13:57:21;;;;;;;0.20;0.20;;;;;;;;;;5009251;28;20042;-80
2023/03/30 14:00:08;;;;;;;0.20;0.20;;;;;;;;;;5009555;28;20050;-81
2023/03/30 14:02:40;;;;;;;0.20;0.20;;;;;;;;;;5004062;23;20054;-80
2023/03/30 14:05:34;;;;;;;0.20;0.20;;;18.40;99.90;;;;;;4990146;28;20050;-81
2023/03/30 14:07:59;;;;;;;0.20;0.20;;;18.90;99.90;;;;;;4992646;23;20112;-80
2023/03/30 14:10:26;;;;;;;0.20;0.20;;;19.30;99.90;;;;;;5014340;28;20042;-79
2023/03/30 14:12:57;;;;;;;0.20;0.20;;;19.30;99.90;;;;;;5011369;28;20408;-81
2023/03/30 14:15:37;;;;;;;0.10;0.10;;;19.60;99.90;;;;;;4996386;28;20096;-81
2023/03/30 14:18:23;;;;;;;0.10;0.10;;;20.90;99.90;;;;;;4996616;28;20050;-80
2023/03/30 14:20:52;;;;;;;0.20;0.20;;;;;;;;;;5031096;23;20045;-81
2023/03/30 14:23:38;;;;;;;0.20;0.20;;;;;;;;;;5015306;28;20052;-80
2023/03/30 14:26:27;;;;;;;0.20;0.20;;;20.30;98.70;;;;;;5012722;28;20058;-80
2023/03/30 14:29:13;;;;;;;0.20;0.20;;;19.90;99.90;;;;;;4977008;28;20050;-81
2023/03/30 14:31:41;;;;;;;0.20;0.20;;;20.60;99.90;;;;;;4990685;28;20632;-81
2023/03/30 14:34:31;;;;;;;0.20;0.20;;;21.30;99.90;;;;;;5009161;28;20065;-80
2023/03/30 14:37:09;;;;;;;0.20;0.20;;;21.90;99.90;;;;;;4993503;28;20082;-82
2023/03/30 14:39:57;;;;;;;0.20;0.20;;;21.80;97.80;;;;;;4994663;28;20100;-80
2023/03/30 14:42:25;;;;;;;0.20;0.20;;;;;;;;;;5011542;23;20409;-79
2023/03/30 14:44:55;;;;;;;0.20;0.20;;;20.70;97.20;;;;;;4997054;28;20053;-80
2023/03/30 14:47:24;;;;;;;0.20;0.20;;;20.50;98.70;;;;;;4995372;28;20068;-82
2023/03/30 14:49:51;;;;;;;0.20;0.20;;;;;;;;;;5014737;28;20053;-80
2023/03/30 14:52:22;;;;;;;0.15;0.15;;;;;;;;;;5013065;28;20046;-79
2023/03/30 14:54:53;;;;;;;0.20;0.20;;;;;;;;;;5008713;28;20470;-80
2023/03/30 14:57:20;;;;;;;0.17;0.17;;;;;;;;;;5007293;28;20060;-80
2023/03/30 15:02:49;;;;;;;0.20;0.20;;;;;;;;;;4996946;28;20049;-81
2023/03/30 15:05:17;;;;;;;0.10;0.10;;;;;;;;;;5002152;23;20303;-80
2023/03/30 15:07:45;;;;;;;0.10;0.10;;;;;;;;;;5012737;28;20046;-80
2023/03/30 15:10:25;;;;;;;0.20;0.20;;;;;;;;;;4988281;28;20058;-80
2023/03/30 15:12:54;;;;;;;0.10;0.10;;;;;;;;;;4991773;28;20042;-80
2023/03/30 15:15:25;;;;;;;0.13;0.13;;;;;;;;;;4990130;28;20792;-81
2023/03/30 15:17:55;;;;;;;0.10;0.10;;;;;;;;;;4992095;28;20049;-80
2023/03/30 15:20:42;;;;;;;0.17;0.17;;;;;;;;;;4981868;28;20256;-81
2023/03/30 15:23:26;;;;;;;0.20;0.20;;;;;;;;;;5010820;28;20042;-82
2023/03/30 15:25:55;;;;;;;0.10;0.10;;;;;;;;;;4969055;23;20054;-80
2023/03/30 15:28:24;;;;;;;0.10;0.10;;;;;;;;;;4953199;28;20439;-81